Map

Track Data

SID SEASON NUMBER BASIN SUBBASIN NAME ISO_TIME NATURE LAT LON WMO_WIND WMO_PRES WMO_AGENCY TRACK_TYPE DIST2LAND LANDFALL IFLAG USA_AGENCY USA_ATCF_ID USA_LAT USA_LON USA_RECORD USA_STATUS USA_WIND USA_PRES USA_SSHS USA_R34_NE USA_R34_SE USA_R34_SW USA_R34_NW USA_R50_NE USA_R50_SE USA_R50_SW USA_R50_NW USA_R64_NE USA_R64_SE USA_R64_SW USA_R64_NW USA_POCI USA_ROCI USA_RMW USA_EYE TOKYO_LAT TOKYO_LON TOKYO_GRADE TOKYO_WIND TOKYO_PRES TOKYO_R50_DIR TOKYO_R50_LONG TOKYO_R50_SHORT TOKYO_R30_DIR TOKYO_R30_LONG TOKYO_R30_SHORT TOKYO_LAND CMA_LAT CMA_LON CMA_CAT CMA_WIND CMA_PRES HKO_LAT HKO_LON HKO_CAT HKO_WIND HKO_PRES NEWDELHI_LAT NEWDELHI_LON NEWDELHI_GRADE NEWDELHI_WIND NEWDELHI_PRES NEWDELHI_CI NEWDELHI_DP NEWDELHI_POCI REUNION_LAT REUNION_LON REUNION_TYPE REUNION_WIND REUNION_PRES REUNION_TNUM REUNION_CI REUNION_RMW REUNION_R34_NE REUNION_R34_SE REUNION_R34_SW REUNION_R34_NW REUNION_R50_NE REUNION_R50_SE REUNION_R50_SW REUNION_R50_NW REUNION_R64_NE REUNION_R64_SE REUNION_R64_SW REUNION_R64_NW BOM_LAT BOM_LON BOM_TYPE BOM_WIND BOM_PRES BOM_TNUM BOM_CI BOM_RMW BOM_R34_NE BOM_R34_SE BOM_R34_SW BOM_R34_NW BOM_R50_NE BOM_R50_SE BOM_R50_SW BOM_R50_NW BOM_R64_NE BOM_R64_SE BOM_R64_SW BOM_R64_NW BOM_ROCI BOM_POCI BOM_EYE BOM_POS_METHOD BOM_PRES_METHOD NADI_LAT NADI_LON NADI_CAT NADI_WIND NADI_PRES WELLINGTON_LAT WELLINGTON_LON WELLINGTON_WIND WELLINGTON_PRES DS824_LAT DS824_LON DS824_STAGE DS824_WIND DS824_PRES TD9636_LAT TD9636_LON TD9636_STAGE TD9636_WIND TD9636_PRES TD9635_LAT TD9635_LON TD9635_WIND TD9635_PRES TD9635_ROCI NEUMANN_LAT NEUMANN_LON NEUMANN_CLASS NEUMANN_WIND NEUMANN_PRES MLC_LAT MLC_LON MLC_CLASS MLC_WIND MLC_PRES USA_GUST BOM_GUST BOM_GUST_PER REUNION_GUST REUNION_GUST_PER USA_SEAHGT USA_SEARAD_NE USA_SEARAD_SE USA_SEARAD_SW USA_SEARAD_NW STORM_SPEED STORM_DIR
1942233N15150 1942 41 WP MM NOT_NAMED 1942-08-20 21:00:00 NR 15.4000 150.400 main 1988 1986 __________O___ -1 15.4000 150.400 7 9 296
1942233N15150 1942 41 WP MM NOT_NAMED 1942-08-21 00:00:00 NR 15.5983 149.975 main 2003 2001 __________P___ -1 15.5983 149.975 7 9 295
1942233N15150 1942 41 WP MM NOT_NAMED 1942-08-21 03:00:00 NR 15.7971 149.530 main 2018 2017 __________P___ -1 15.7971 149.530 7 10 294
1942233N15150 1942 41 WP MM NOT_NAMED 1942-08-21 06:00:00 NR 15.9973 149.045 main 2035 2034 __________P___ -1 15.9973 149.045 7 11 292
1942233N15150 1942 41 WP MM NOT_NAMED 1942-08-21 09:00:00 NR 16.2000 148.500 main 2053 2052 __________O___ -1 16.2000 148.500 4 12 290
1942233N15150 1942 41 WP MM NOT_NAMED 1942-08-21 12:00:00 NR 16.4050 147.892 main 2073 2072 __________P___ -1 16.4050 147.892 4 12 289
1942233N15150 1942 41 WP MM NOT_NAMED 1942-08-21 15:00:00 NR 16.6088 147.286 main 2094 2094 __________P___ -1 16.6088 147.286 4 12 290
1942233N15150 1942 41 WP MM NOT_NAMED 1942-08-21 18:00:00 NR 16.8080 146.761 main 2117 2100 __________P___ -1 16.8080 146.761 4 9 295
1942233N15150 1942 41 WP MM NOT_NAMED 1942-08-21 21:00:00 NR 17.0000 146.400 main 2100 2076 __________O___ -1 17.0000 146.400 4 6 311
1942233N15150 1942 41 WP MM NOT_NAMED 1942-08-22 00:00:00 NR 17.1814 146.306 main 2076 2065 __________P___ -1 17.1814 146.306 4 4 0
1942233N15150 1942 41 WP MM NOT_NAMED 1942-08-22 03:00:00 NR 17.3568 146.376 main 2057 2050 __________P___ -1 17.3568 146.376 4 4 32
1942233N15150 1942 41 WP MM NOT_NAMED 1942-08-22 06:00:00 NR 17.5287 146.534 main 2050 2035 __________P___ -1 17.5287 146.534 4 5 42
1942233N15150 1942 41 WP MM NOT_NAMED 1942-08-22 09:00:00 NR 17.7000 146.700 main 2035 2028 __________O___ -1 17.7000 146.700 4 4 42
1942233N15150 1942 41 WP MM NOT_NAMED 1942-08-22 12:00:00 NR 17.8382 146.830 main 2028 2010 __________P___ -1 17.8382 146.830 4 4 39
1942233N15150 1942 41 WP MM NOT_NAMED 1942-08-22 15:00:00 NR 17.9820 146.941 main 2010 2003 __________P___ -1 17.9820 146.941 4 4 24
1942233N15150 1942 41 WP MM NOT_NAMED 1942-08-22 18:00:00 NR 18.1598 146.982 main 1992 1967 __________P___ -1 18.1598 146.982 4 4 354
1942233N15150 1942 41 WP MM NOT_NAMED 1942-08-22 21:00:00 NR 18.4000 146.900 main 1967 1929 __________O___ -1 18.4000 146.900 4 7 334
1942233N15150 1942 41 WP MM NOT_NAMED 1942-08-23 00:00:00 NR 18.7553 146.675 main 1918 1873 __________P___ -1 18.7553 146.675 4 10 324
1942233N15150 1942 41 WP MM NOT_NAMED 1942-08-23 03:00:00 NR 19.1694 146.318 main 1862 1807 __________P___ -1 19.1694 146.318 4 12 317
1942233N15150 1942 41 WP MM NOT_NAMED 1942-08-23 06:00:00 NR 19.5987 145.853 main 1807 1745 __________P___ -1 19.5987 145.853 4 13 311
1942233N15150 1942 41 WP MM NOT_NAMED 1942-08-23 09:00:00 NR 20.0000 145.300 main 1745 1696 __________O___ -1 20.0000 145.300 4 13 303
1942233N15150 1942 41 WP MM NOT_NAMED 1942-08-23 12:00:00 NR 20.3202 144.676 main 1696 1642 __________P___ -1 20.3202 144.676 4 14 296
1942233N15150 1942 41 WP MM NOT_NAMED 1942-08-23 15:00:00 NR 20.6042 143.980 main 1642 1589 __________P___ -1 20.6042 143.980 4 14 292
1942233N15150 1942 41 WP MM NOT_NAMED 1942-08-23 18:00:00 NR 20.8608 143.269 main 1579 1527 __________P___ -1 20.8608 143.269 4 14 291
1942233N15150 1942 41 WP MM NOT_NAMED 1942-08-23 21:00:00 NR 21.1000 142.600 main 1527 1486 __________O___ -1 21.1000 142.600 4 12 293
1942233N15150 1942 41 WP MM NOT_NAMED 1942-08-24 00:00:00 NR 21.3335 142.073 main 1486 1445 __________P___ -1 21.3335 142.073 4 10 296
1942233N15150 1942 41 WP MM NOT_NAMED 1942-08-24 03:00:00 NR 21.5550 141.590 main 1435 1395 __________P___ -1 21.5550 141.590 4 10 296
1942233N15150 1942 41 WP MM NOT_NAMED 1942-08-24 06:00:00 NR 21.7741 141.113 main 1395 1357 __________P___ -1 21.7741 141.113 4 10 296
1942233N15150 1942 41 WP MM NOT_NAMED 1942-08-24 09:00:00 NR 22.0000 140.600 main 1357 1316 __________O___ -1 22.0000 140.600 4 11 294
1942233N15150 1942 41 WP MM NOT_NAMED 1942-08-24 12:00:00 NR 22.2388 139.993 main 1316 1266 __________P___ -1 22.2388 139.993 4 13 293
1942233N15150 1942 41 WP MM NOT_NAMED 1942-08-24 15:00:00 NR 22.4850 139.344 main 1263 1209 __________P___ -1 22.4850 139.344 4 13 292
1942233N15150 1942 41 WP MM NOT_NAMED 1942-08-24 18:00:00 NR 22.7386 138.674 main 1209 1141 __________P___ -1 22.7386 138.674 4 13 293
1942233N15150 1942 41 WP MM NOT_NAMED 1942-08-24 21:00:00 NR 23.0000 138.000 main 1141 1090 __________O___ -1 23.0000 138.000 4 13 293
1942233N15150 1942 41 WP MM NOT_NAMED 1942-08-25 00:00:00 NR 23.2505 137.357 main 1080 1024 __________P___ -1 23.2505 137.357 4 13 293
1942233N15150 1942 41 WP MM NOT_NAMED 1942-08-25 03:00:00 NR 23.5111 136.713 main 1024 964 __________P___ -1 23.5111 136.713 4 13 294
1942233N15150 1942 41 WP MM NOT_NAMED 1942-08-25 06:00:00 NR 23.7911 136.063 main 964 898 __________P___ -1 23.7911 136.063 4 13 296
1942233N15150 1942 41 WP MM NOT_NAMED 1942-08-25 09:00:00 NR 24.1000 135.400 main 898 835 __________O___ -1 24.1000 135.400 4 14 297
1942233N15150 1942 41 WP MM NOT_NAMED 1942-08-25 12:00:00 NR 24.4384 134.682 main 835 764 __________P___ -1 24.4384 134.682 4 15 298
1942233N15150 1942 41 WP MM NOT_NAMED 1942-08-25 15:00:00 NR 24.8056 133.955 main 764 695 __________P___ -1 24.8056 133.955 4 15 300
1942233N15150 1942 41 WP MM NOT_NAMED 1942-08-25 18:00:00 NR 25.1949 133.251 main 695 630 __________P___ -1 25.1949 133.251 4 15 303
1942233N15150 1942 41 WP MM NOT_NAMED 1942-08-25 21:00:00 NR 25.6000 132.600 main 630 572 __________O___ -1 25.6000 132.600 4 14 305
1942233N15150 1942 41 WP MM NOT_NAMED 1942-08-26 00:00:00 NR 25.9894 132.005 main 572 519 __________P___ -1 25.9894 132.005 4 13 308
1942233N15150 1942 41 WP MM NOT_NAMED 1942-08-26 03:00:00 NR 26.3965 131.471 main 519 469 __________P___ -1 26.3965 131.471 4 12 313
1942233N15150 1942 41 WP MM NOT_NAMED 1942-08-26 06:00:00 NR 26.8304 131.002 main 469 413 __________P___ -1 26.8304 131.002 4 12 319
1942233N15150 1942 41 WP MM NOT_NAMED 1942-08-26 09:00:00 NR 27.3000 130.600 main 413 371 __________O___ -1 27.3000 130.600 4 11 320
1942233N15150 1942 41 WP MM NOT_NAMED 1942-08-26 12:00:00 NR 27.6962 130.173 main 371 332 __________P___ -1 27.6962 130.173 4 11 321
1942233N15150 1942 41 WP MM NOT_NAMED 1942-08-26 15:00:00 NR 28.1450 129.823 main 335 277 __________P___ -1 28.1450 129.823 4 12 333
1942233N15150 1942 41 WP MM NOT_NAMED 1942-08-26 18:00:00 NR 28.7212 129.585 main 277 211 __________P___ -1 28.7212 129.585 4 14 348
1942233N15150 1942 41 WP MM NOT_NAMED 1942-08-26 21:00:00 NR 29.5000 129.500 main 201 96 __________O___ -1 29.5000 129.500 4 19 359
1942233N15150 1942 41 WP MM NOT_NAMED 1942-08-27 00:00:00 NR 30.6185 129.558 main 88 37 __________P___ -1 30.6185 129.558 4 25 6
1942233N15150 1942 41 WP MM NOT_NAMED 1942-08-27 03:00:00 NR 31.9291 129.778 main 37 0 __________P___ -1 31.9291 129.778 4 27 10
1942233N15150 1942 41 WP MM NOT_NAMED 1942-08-27 06:00:00 NR 33.3001 130.134 main 0 0 __________P___ -1 33.3001 130.134 4 28 14
1942233N15150 1942 41 WP MM NOT_NAMED 1942-08-27 09:00:00 NR 34.6000 130.600 main 43 43 __________O___ -1 34.6000 130.600 7 25 19
1942233N15150 1942 41 WP MM NOT_NAMED 1942-08-27 12:00:00 NR 35.6568 131.146 main 126 119 __________P___ -1 35.6568 131.146 7 22 26
1942233N15150 1942 41 WP MM NOT_NAMED 1942-08-27 15:00:00 NR 36.6219 131.787 main 151 151 __________P___ -1 36.6219 131.787 7 21 29
1942233N15150 1942 41 WP MM NOT_NAMED 1942-08-27 18:00:00 NR 37.5258 132.460 main 225 225 __________P___ -1 37.5258 132.460 7 21 30
1942233N15150 1942 41 WP MM NOT_NAMED 1942-08-27 21:00:00 NR 38.4000 133.100 main 323 323 __________O___ -1 38.4000 133.100 7 20 25
1942233N15150 1942 41 WP MM NOT_NAMED 1942-08-28 00:00:00 NR 39.3150 133.523 main 356 287 __________P___ -1 39.3150 133.523 7 19 19
1942233N15150 1942 41 WP MM NOT_NAMED 1942-08-28 03:00:00 NR 40.2082 133.914 main 287 206 __________P___ -1 40.2082 133.914 7 19 20
1942233N15150 1942 41 WP MM NOT_NAMED 1942-08-28 06:00:00 NR 41.0728 134.372 main 197 143 __________P___ -1 41.0728 134.372 7 19 26
1942233N15150 1942 41 WP MM NOT_NAMED 1942-08-28 09:00:00 NR 41.9000 135.000 main 143 111 __________O___ -1 41.9000 135.000 7 20 35
1942233N15150 1942 41 WP MM NOT_NAMED 1942-08-28 12:00:00 NR 42.6819 135.879 main 110 104 __________P___ -1 42.6819 135.879 7 21 44
1942233N15150 1942 41 WP MM NOT_NAMED 1942-08-28 15:00:00 NR 43.4213 136.980 main 130 125 __________P___ -1 43.4213 136.980 7 22 50
1942233N15150 1942 41 WP MM NOT_NAMED 1942-08-28 18:00:00 NR 44.1246 138.242 main 155 154 __________P___ -1 44.1246 138.242 7 23 54
1942233N15150 1942 41 WP MM NOT_NAMED 1942-08-28 21:00:00 NR 44.8000 139.600 main 162 __________O___ -1 44.8000 139.600 7 24 55

Digital Typhoon Data and Search

About IBTrACS Database

This database is a web-friendly format of International Best Track Archive for Climate Stewardship (IBTrACS), a global best track data archive curated by NOAA dating back to 1842.

Updated: 2021-12-01